sensor_id;sensor_type;location;lat;lon;timestamp;pressure;altitude;pressure_sealevel;temperature;humidity
30819;BME280;17546;42.674;23.284;2023-02-19T00:00:01;95020.38;;;14.74;34.34
30819;BME280;17546;42.674;23.284;2023-02-19T00:02:27;95014.06;;;14.26;35.17
30819;BME280;17546;42.674;23.284;2023-02-19T00:04:52;95018.91;;;14.67;34.30
30819;BME280;17546;42.674;23.284;2023-02-19T00:07:18;95011.50;;;14.76;34.31
30819;BME280;17546;42.674;23.284;2023-02-19T00:09:43;95017.97;;;14.48;34.73
30819;BME280;17546;42.674;23.284;2023-02-19T00:12:08;95011.31;;;14.15;35.47
30819;BME280;17546;42.674;23.284;2023-02-19T00:14:34;95001.22;;;14.59;34.50
30819;BME280;17546;42.674;23.284;2023-02-19T00:16:59;95001.25;;;14.48;34.80
30819;BME280;17546;42.674;23.284;2023-02-19T00:19:25;94995.94;;;14.56;34.67
30819;BME280;17546;42.674;23.284;2023-02-19T00:21:51;94998.72;;;14.50;34.34
30819;BME280;17546;42.674;23.284;2023-02-19T00:24:17;94997.13;;;14.19;35.36
30819;BME280;17546;42.674;23.284;2023-02-19T00:26:44;94997.22;;;14.49;34.74
30819;BME280;17546;42.674;23.284;2023-02-19T00:29:15;94981.16;;;14.19;35.47
30819;BME280;17546;42.674;23.284;2023-02-19T00:31:41;94968.50;;;14.18;35.44
30819;BME280;17546;42.674;23.284;2023-02-19T00:34:06;94981.44;;;14.16;35.35
30819;BME280;17546;42.674;23.284;2023-02-19T00:36:33;94974.19;;;13.96;35.62
30819;BME280;17546;42.674;23.284;2023-02-19T00:39:02;94970.25;;;14.27;35.22
30819;BME280;17546;42.674;23.284;2023-02-19T00:41:27;94983.78;;;14.47;34.99
30819;BME280;17546;42.674;23.284;2023-02-19T00:43:57;94992.66;;;14.46;35.29
30819;BME280;17546;42.674;23.284;2023-02-19T00:48:49;94968.88;;;14.39;35.11
30819;BME280;17546;42.674;23.284;2023-02-19T00:51:15;94962.19;;;14.59;34.90
30819;BME280;17546;42.674;23.284;2023-02-19T00:53:41;94960.41;;;14.62;34.69
30819;BME280;17546;42.674;23.284;2023-02-19T00:56:07;94961.53;;;14.42;34.94
30819;BME280;17546;42.674;23.284;2023-02-19T00:58:33;94960.31;;;14.32;35.36
30819;BME280;17546;42.674;23.284;2023-02-19T01:00:58;94956.31;;;14.21;35.54
30819;BME280;17546;42.674;23.284;2023-02-19T01:03:24;94943.44;;;14.54;34.81
30819;BME280;17546;42.674;23.284;2023-02-19T01:05:51;94933.13;;;14.43;35.07
30819;BME280;17546;42.674;23.284;2023-02-19T01:08:17;94951.09;;;14.48;35.17
30819;BME280;17546;42.674;23.284;2023-02-19T01:10:43;94954.06;;;14.61;34.98
30819;BME280;17546;42.674;23.284;2023-02-19T01:13:08;94942.03;;;14.42;35.20
30819;BME280;17546;42.674;23.284;2023-02-19T01:15:34;94945.25;;;14.57;35.02
30819;BME280;17546;42.674;23.284;2023-02-19T01:17:59;94946.22;;;14.60;34.98
30819;BME280;17546;42.674;23.284;2023-02-19T01:20:25;94936.38;;;14.53;34.74
30819;BME280;17546;42.674;23.284;2023-02-19T01:22:51;94939.31;;;13.83;35.79
30819;BME280;17546;42.674;23.284;2023-02-19T01:25:17;94952.53;;;13.66;36.11
30819;BME280;17546;42.674;23.284;2023-02-19T01:27:42;94959.25;;;13.99;35.64
30819;BME280;17546;42.674;23.284;2023-02-19T01:30:08;94952.00;;;14.26;35.12
30819;BME280;17546;42.674;23.284;2023-02-19T01:32:34;94955.84;;;14.17;35.46
30819;BME280;17546;42.674;23.284;2023-02-19T01:34:59;94968.47;;;14.24;35.29
30819;BME280;17546;42.674;23.284;2023-02-19T01:37:25;94977.47;;;14.41;35.14
30819;BME280;17546;42.674;23.284;2023-02-19T01:39:51;94990.41;;;14.44;34.97
30819;BME280;17546;42.674;23.284;2023-02-19T01:42:17;94980.25;;;14.47;34.72
30819;BME280;17546;42.674;23.284;2023-02-19T01:47:07;94986.72;;;14.19;34.97
30819;BME280;17546;42.674;23.284;2023-02-19T01:49:47;95024.84;;;14.47;34.80
30819;BME280;17546;42.674;23.284;2023-02-19T01:52:25;95000.34;;;14.29;34.96
30819;BME280;17546;42.674;23.284;2023-02-19T01:54:55;94994.50;;;13.79;35.65
30819;BME280;17546;42.674;23.284;2023-02-19T01:57:25;95018.09;;;14.25;35.04
30819;BME280;17546;42.674;23.284;2023-02-19T01:59:54;95004.41;;;13.80;35.94
30819;BME280;17546;42.674;23.284;2023-02-19T02:02:22;95005.97;;;14.17;35.22
30819;BME280;17546;42.674;23.284;2023-02-19T02:04:49;95008.50;;;14.26;35.09
30819;BME280;17546;42.674;23.284;2023-02-19T02:07:15;94989.00;;;14.26;35.07
30819;BME280;17546;42.674;23.284;2023-02-19T02:09:59;94986.00;;;13.55;36.17
30819;BME280;17546;42.674;23.284;2023-02-19T02:12:43;94980.91;;;14.23;35.14
30819;BME280;17546;42.674;23.284;2023-02-19T02:15:09;94984.13;;;14.33;34.95
30819;BME280;17546;42.674;23.284;2023-02-19T02:20:45;94984.97;;;14.16;35.10
30819;BME280;17546;42.674;23.284;2023-02-19T02:23:24;94979.34;;;14.27;34.77
30819;BME280;17546;42.674;23.284;2023-02-19T02:31:16;95001.81;;;14.41;34.89
30819;BME280;17546;42.674;23.284;2023-02-19T02:33:48;94999.72;;;14.00;35.18
30819;BME280;17546;42.674;23.284;2023-02-19T02:36:39;95007.72;;;14.26;35.01
30819;BME280;17546;42.674;23.284;2023-02-19T02:39:12;95000.34;;;14.29;34.78
30819;BME280;17546;42.674;23.284;2023-02-19T02:41:48;95007.72;;;13.68;35.72
30819;BME280;17546;42.674;23.284;2023-02-19T02:44:38;95002.25;;;14.03;35.37
30819;BME280;17546;42.674;23.284;2023-02-19T02:47:05;95013.66;;;14.00;35.27
30819;BME280;17546;42.674;23.284;2023-02-19T02:49:32;95011.09;;;14.13;35.08
30819;BME280;17546;42.674;23.284;2023-02-19T02:52:22;95012.09;;;14.10;35.09
30819;BME280;17546;42.674;23.284;2023-02-19T02:55:08;95017.72;;;13.99;35.40
30819;BME280;17546;42.674;23.284;2023-02-19T02:57:35;95010.00;;;14.22;34.96
30819;BME280;17546;42.674;23.284;2023-02-19T03:00:02;94999.34;;;14.32;34.82
30819;BME280;17546;42.674;23.284;2023-02-19T03:02:28;94994.75;;;14.40;34.69
30819;BME280;17546;42.674;23.284;2023-02-19T03:05:21;95002.53;;;14.47;34.69
30819;BME280;17546;42.674;23.284;2023-02-19T03:10:39;94989.44;;;14.31;34.88
30819;BME280;17546;42.674;23.284;2023-02-19T03:13:14;95009.06;;;14.14;34.97
30819;BME280;17546;42.674;23.284;2023-02-19T03:16:21;94995.25;;;14.33;35.00
30819;BME280;17546;42.674;23.284;2023-02-19T03:19:11;95003.94;;;14.23;35.02
30819;BME280;17546;42.674;23.284;2023-02-19T03:22:07;95001.41;;;14.25;34.92
30819;BME280;17546;42.674;23.284;2023-02-19T03:24:40;95017.53;;;13.91;35.66
30819;BME280;17546;42.674;23.284;2023-02-19T03:27:27;95029.41;;;13.92;35.36
30819;BME280;17546;42.674;23.284;2023-02-19T03:29:56;95020.25;;;13.97;35.31
30819;BME280;17546;42.674;23.284;2023-02-19T03:32:37;95037.16;;;14.16;35.22
30819;BME280;17546;42.674;23.284;2023-02-19T03:35:09;95038.41;;;14.20;34.99
30819;BME280;17546;42.674;23.284;2023-02-19T03:37:59;95051.16;;;13.99;35.26
30819;BME280;17546;42.674;23.284;2023-02-19T03:40:29;95046.41;;;13.71;35.97
30819;BME280;17546;42.674;23.284;2023-02-19T03:50:54;95052.22;;;13.73;36.04
30819;BME280;17546;42.674;23.284;2023-02-19T03:53:30;95041.50;;;14.00;35.61
30819;BME280;17546;42.674;23.284;2023-02-19T03:58:41;95059.75;;;14.01;35.69
30819;BME280;17546;42.674;23.284;2023-02-19T04:01:18;95055.69;;;14.02;35.46
30819;BME280;17546;42.674;23.284;2023-02-19T04:03:58;95060.47;;;14.13;35.17
30819;BME280;17546;42.674;23.284;2023-02-19T04:06:28;95066.06;;;14.01;35.33
30819;BME280;17546;42.674;23.284;2023-02-19T04:08:58;95066.81;;;14.13;35.26
30819;BME280;17546;42.674;23.284;2023-02-19T04:11:26;95066.28;;;14.20;35.18
30819;BME280;17546;42.674;23.284;2023-02-19T04:16:53;95053.44;;;13.95;35.30
30819;BME280;17546;42.674;23.284;2023-02-19T04:19:25;95064.16;;;13.74;35.78
30819;BME280;17546;42.674;23.284;2023-02-19T04:21:53;95072.72;;;13.81;35.68
30819;BME280;17546;42.674;23.284;2023-02-19T04:24:27;95074.75;;;13.75;35.86
30819;BME280;17546;42.674;23.284;2023-02-19T04:26:54;95059.31;;;13.80;35.45
30819;BME280;17546;42.674;23.284;2023-02-19T04:29:20;95077.81;;;13.72;35.88
30819;BME280;17546;42.674;23.284;2023-02-19T04:31:45;95066.66;;;13.77;35.49
30819;BME280;17546;42.674;23.284;2023-02-19T04:34:11;95080.06;;;13.73;35.70
30819;BME280;17546;42.674;23.284;2023-02-19T04:36:37;95072.78;;;13.53;36.11
30819;BME280;17546;42.674;23.284;2023-02-19T04:39:02;95073.03;;;13.61;36.00
30819;BME280;17546;42.674;23.284;2023-02-19T04:41:28;95078.06;;;13.68;36.08
30819;BME280;17546;42.674;23.284;2023-02-19T04:43:55;95083.38;;;13.72;35.88
30819;BME280;17546;42.674;23.284;2023-02-19T04:46:20;95078.88;;;13.52;36.08
30819;BME280;17546;42.674;23.284;2023-02-19T04:48:46;95078.88;;;13.52;36.32
30819;BME280;17546;42.674;23.284;2023-02-19T04:51:11;95085.66;;;13.62;36.19
30819;BME280;17546;42.674;23.284;2023-02-19T04:53:37;95076.56;;;13.11;36.90
30819;BME280;17546;42.674;23.284;2023-02-19T04:56:11;95089.75;;;13.33;36.69
30819;BME280;17546;42.674;23.284;2023-02-19T04:58:37;95092.25;;;13.53;36.35
30819;BME280;17546;42.674;23.284;2023-02-19T05:01:03;95087.94;;;13.58;36.19
30819;BME280;17546;42.674;23.284;2023-02-19T05:03:29;95091.78;;;13.32;36.49
30819;BME280;17546;42.674;23.284;2023-02-19T05:05:55;95087.72;;;13.39;36.26
30819;BME280;17546;42.674;23.284;2023-02-19T05:08:20;95091.69;;;12.76;37.04
30819;BME280;17546;42.674;23.284;2023-02-19T05:10:46;95091.13;;;12.49;37.41
30819;BME280;17546;42.674;23.284;2023-02-19T05:13:11;95091.22;;;13.11;36.62
30819;BME280;17546;42.674;23.284;2023-02-19T05:15:37;95088.41;;;12.77;37.08
30819;BME280;17546;42.674;23.284;2023-02-19T05:18:03;95102.66;;;13.30;36.17
30819;BME280;17546;42.674;23.284;2023-02-19T05:20:29;95087.19;;;13.07;36.40
30819;BME280;17546;42.674;23.284;2023-02-19T05:22:54;95095.06;;;13.36;36.37
30819;BME280;17546;42.674;23.284;2023-02-19T05:25:20;95095.53;;;13.23;36.72
30819;BME280;17546;42.674;23.284;2023-02-19T05:27:45;95092.53;;;13.33;36.55
30819;BME280;17546;42.674;23.284;2023-02-19T05:30:11;95096.97;;;14.09;35.33
30819;BME280;17546;42.674;23.284;2023-02-19T05:32:39;95097.81;;;13.70;36.56
30819;BME280;17546;42.674;23.284;2023-02-19T05:35:05;95099.13;;;14.39;35.61
30819;BME280;17546;42.674;23.284;2023-02-19T05:37:30;95099.06;;;14.50;35.18
30819;BME280;17546;42.674;23.284;2023-02-19T05:39:56;95108.78;;;14.91;34.60
30819;BME280;17546;42.674;23.284;2023-02-19T05:42:21;95100.66;;;14.93;34.58
30819;BME280;17546;42.674;23.284;2023-02-19T05:44:47;95103.59;;;15.36;33.94
30819;BME280;17546;42.674;23.284;2023-02-19T05:47:12;95109.75;;;15.89;33.09
30819;BME280;17546;42.674;23.284;2023-02-19T05:49:38;95101.63;;;15.61;33.72
30819;BME280;17546;42.674;23.284;2023-02-19T05:52:07;95093.06;;;15.84;33.29
30819;BME280;17546;42.674;23.284;2023-02-19T05:54:33;95101.81;;;15.69;33.51
30819;BME280;17546;42.674;23.284;2023-02-19T05:56:58;95104.88;;;15.71;33.40
30819;BME280;17546;42.674;23.284;2023-02-19T05:59:25;95123.59;;;15.76;33.37
30819;BME280;17546;42.674;23.284;2023-02-19T06:01:52;95120.53;;;16.04;33.17
30819;BME280;17546;42.674;23.284;2023-02-19T06:04:18;95140.75;;;16.16;32.89
30819;BME280;17546;42.674;23.284;2023-02-19T06:06:46;95135.69;;;16.15;32.89
30819;BME280;17546;42.674;23.284;2023-02-19T06:09:12;95131.91;;;16.12;32.89
30819;BME280;17546;42.674;23.284;2023-02-19T06:11:38;95134.97;;;15.84;33.35
30819;BME280;17546;42.674;23.284;2023-02-19T06:14:04;95148.28;;;16.46;32.86
30819;BME280;17546;42.674;23.284;2023-02-19T06:16:30;95139.31;;;15.79;33.70
30819;BME280;17546;42.674;23.284;2023-02-19T06:18:58;95160.69;;;15.77;33.87
30819;BME280;17546;42.674;23.284;2023-02-19T06:21:23;95137.06;;;16.27;32.93
30819;BME280;17546;42.674;23.284;2023-02-19T06:23:49;95147.13;;;16.11;33.49
30819;BME280;17546;42.674;23.284;2023-02-19T06:26:18;95152.09;;;15.99;33.39
30819;BME280;17546;42.674;23.284;2023-02-19T06:28:45;95156.16;;;15.98;33.52
30819;BME280;17546;42.674;23.284;2023-02-19T06:31:12;95149.94;;;16.11;33.34
30819;BME280;17546;42.674;23.284;2023-02-19T06:33:38;95148.00;;;16.00;33.44
30819;BME280;17546;42.674;23.284;2023-02-19T06:36:06;95150.41;;;16.15;33.11
30819;BME280;17546;42.674;23.284;2023-02-19T06:38:32;95150.28;;;16.02;33.22
30819;BME280;17546;42.674;23.284;2023-02-19T06:41:02;95142.69;;;16.46;32.61
30819;BME280;17546;42.674;23.284;2023-02-19T06:43:28;95141.41;;;16.22;32.70
30819;BME280;17546;42.674;23.284;2023-02-19T06:45:57;95140.44;;;16.63;32.24
30819;BME280;17546;42.674;23.284;2023-02-19T06:48:25;95141.53;;;17.17;31.51
30819;BME280;17546;42.674;23.284;2023-02-19T06:50:50;95155.16;;;17.26;31.25
30819;BME280;17546;42.674;23.284;2023-02-19T06:53:16;95149.63;;;17.40;31.05
30819;BME280;17546;42.674;23.284;2023-02-19T06:55:41;95148.63;;;17.37;30.92
30819;BME280;17546;42.674;23.284;2023-02-19T06:58:07;95154.06;;;17.48;30.88
30819;BME280;17546;42.674;23.284;2023-02-19T07:00:33;95158.56;;;17.70;30.74
30819;BME280;17546;42.674;23.284;2023-02-19T07:02:59;95164.50;;;17.80;30.27
30819;BME280;17546;42.674;23.284;2023-02-19T07:05:24;95158.56;;;17.70;30.31
30819;BME280;17546;42.674;23.284;2023-02-19T07:07:50;95169.50;;;17.55;30.67
30819;BME280;17546;42.674;23.284;2023-02-19T07:10:16;95162.44;;;17.81;30.38
30819;BME280;17546;42.674;23.284;2023-02-19T07:12:41;95163.75;;;17.80;30.41
30819;BME280;17546;42.674;23.284;2023-02-19T07:15:08;95159.31;;;17.71;30.97
30819;BME280;17546;42.674;23.284;2023-02-19T07:17:34;95167.78;;;17.65;30.56
30819;BME280;17546;42.674;23.284;2023-02-19T07:19:59;95162.84;;;17.71;30.55
30819;BME280;17546;42.674;23.284;2023-02-19T07:22:25;95144.00;;;17.72;30.31
30819;BME280;17546;42.674;23.284;2023-02-19T07:24:51;95146.31;;;17.54;30.53
30819;BME280;17546;42.674;23.284;2023-02-19T07:27:17;95155.19;;;17.72;30.21
30819;BME280;17546;42.674;23.284;2023-02-19T07:29:42;95145.53;;;17.73;30.26
30819;BME280;17546;42.674;23.284;2023-02-19T07:32:08;95149.16;;;17.68;30.46
30819;BME280;17546;42.674;23.284;2023-02-19T07:34:33;95150.75;;;17.63;30.60
30819;BME280;17546;42.674;23.284;2023-02-19T07:36:59;95133.44;;;17.65;30.31
30819;BME280;17546;42.674;23.284;2023-02-19T07:39:24;95133.09;;;16.85;31.42
30819;BME280;17546;42.674;23.284;2023-02-19T07:41:49;95133.22;;;17.11;31.20
30819;BME280;17546;42.674;23.284;2023-02-19T07:44:15;95142.03;;;17.34;30.89
30819;BME280;17546;42.674;23.284;2023-02-19T07:46:41;95139.28;;;17.16;31.40
30819;BME280;17546;42.674;23.284;2023-02-19T07:49:07;95134.91;;;16.82;31.89
30819;BME280;17546;42.674;23.284;2023-02-19T07:51:36;95138.50;;;17.15;31.65
30819;BME280;17546;42.674;23.284;2023-02-19T07:54:04;95135.66;;;16.83;31.87
30819;BME280;17546;42.674;23.284;2023-02-19T07:56:29;95135.16;;;16.79;32.17
30819;BME280;17546;42.674;23.284;2023-02-19T07:58:55;95128.13;;;17.29;31.65
30819;BME280;17546;42.674;23.284;2023-02-19T08:01:22;95129.75;;;17.05;31.54
30819;BME280;17546;42.674;23.284;2023-02-19T08:04:07;95123.81;;;17.28;31.51
30819;BME280;17546;42.674;23.284;2023-02-19T08:06:32;95129.19;;;17.58;31.20
30819;BME280;17546;42.674;23.284;2023-02-19T08:08:58;95134.66;;;17.50;31.27
30819;BME280;17546;42.674;23.284;2023-02-19T08:11:23;95123.81;;;17.28;31.34
30819;BME280;17546;42.674;23.284;2023-02-19T08:14:07;95126.88;;;17.43;31.19
30819;BME280;17546;42.674;23.284;2023-02-19T08:16:33;95127.81;;;17.32;30.88
30819;BME280;17546;42.674;23.284;2023-02-19T08:18:58;95120.88;;;17.52;30.55
30819;BME280;17546;42.674;23.284;2023-02-19T08:21:24;95117.78;;;17.88;30.26
30819;BME280;17546;42.674;23.284;2023-02-19T08:23:49;95130.75;;;17.40;31.03
30819;BME280;17546;42.674;23.284;2023-02-19T08:26:14;95125.69;;;17.71;30.76
30819;BME280;17546;42.674;23.284;2023-02-19T08:28:40;95121.91;;;17.68;30.81
30819;BME280;17546;42.674;23.284;2023-02-19T08:31:07;95132.25;;;18.32;30.03
30819;BME280;17546;42.674;23.284;2023-02-19T08:33:33;95126.63;;;17.60;30.91
30819;BME280;17546;42.674;23.284;2023-02-19T08:36:07;95124.66;;;17.87;30.62
30819;BME280;17546;42.674;23.284;2023-02-19T08:38:34;95134.06;;;18.30;30.08
30819;BME280;17546;42.674;23.284;2023-02-19T08:41:05;95129.13;;;18.36;30.26
30819;BME280;17546;42.674;23.284;2023-02-19T08:43:31;95121.22;;;17.94;30.10
30819;BME280;17546;42.674;23.284;2023-02-19T08:45:56;95115.66;;;18.21;29.85
30819;BME280;17546;42.674;23.284;2023-02-19T08:48:22;95125.56;;;18.35;29.59
30819;BME280;17546;42.674;23.284;2023-02-19T08:51:00;95123.84;;;18.46;29.71
30819;BME280;17546;42.674;23.284;2023-02-19T08:53:29;95109.16;;;18.40;29.61
30819;BME280;17546;42.674;23.284;2023-02-19T08:55:54;95124.47;;;18.38;29.48
30819;BME280;17546;42.674;23.284;2023-02-19T08:58:20;95113.44;;;18.67;29.86
30819;BME280;17546;42.674;23.284;2023-02-19T09:00:46;95111.84;;;18.72;29.81
30819;BME280;17546;42.674;23.284;2023-02-19T09:03:11;95110.44;;;18.78;30.01
30819;BME280;17546;42.674;23.284;2023-02-19T09:05:37;95105.81;;;18.68;29.78
30819;BME280;17546;42.674;23.284;2023-02-19T09:08:03;95095.13;;;18.53;30.03
30819;BME280;17546;42.674;23.284;2023-02-19T09:10:28;95083.81;;;18.05;30.95
30819;BME280;17546;42.674;23.284;2023-02-19T09:12:54;95102.88;;;18.73;30.48
30819;BME280;17546;42.674;23.284;2023-02-19T09:15:19;95093.16;;;18.88;30.29
30819;BME280;17546;42.674;23.284;2023-02-19T09:17:50;95085.38;;;18.81;30.50
30819;BME280;17546;42.674;23.284;2023-02-19T09:20:15;95091.44;;;18.58;31.15
30819;BME280;17546;42.674;23.284;2023-02-19T09:22:41;95079.38;;;18.63;30.21
30819;BME280;17546;42.674;23.284;2023-02-19T09:25:06;95086.75;;;19.01;30.51
30819;BME280;17546;42.674;23.284;2023-02-19T09:27:32;95080.88;;;18.77;30.38
30819;BME280;17546;42.674;23.284;2023-02-19T09:29:57;95080.19;;;18.85;30.20
30819;BME280;17546;42.674;23.284;2023-02-19T09:32:23;95090.81;;;18.38;30.81
30819;BME280;17546;42.674;23.284;2023-02-19T09:34:48;95087.50;;;19.01;30.21
30819;BME280;17546;42.674;23.284;2023-02-19T09:37:14;95086.03;;;18.87;30.47
30819;BME280;17546;42.674;23.284;2023-02-19T09:39:39;95074.03;;;19.41;29.94
30819;BME280;17546;42.674;23.284;2023-02-19T09:42:18;95079.16;;;19.51;29.46
30819;BME280;17546;42.674;23.284;2023-02-19T09:44:47;95057.53;;;19.80;29.87
30819;BME280;17546;42.674;23.284;2023-02-19T09:47:17;95070.47;;;19.41;29.69
30819;BME280;17546;42.674;23.284;2023-02-19T09:49:45;95059.63;;;20.16;28.73
30819;BME280;17546;42.674;23.284;2023-02-19T09:52:35;95062.22;;;20.42;28.49
30819;BME280;17546;42.674;23.284;2023-02-19T09:57:49;95049.88;;;21.05;27.45
30819;BME280;17546;42.674;23.284;2023-02-19T10:00:21;95048.25;;;21.40;26.77
30819;BME280;17546;42.674;23.284;2023-02-19T10:03:03;95027.44;;;21.66;26.40
30819;BME280;17546;42.674;23.284;2023-02-19T10:05:30;95023.66;;;21.87;25.73
30819;BME280;17546;42.674;23.284;2023-02-19T10:07:56;95035.72;;;21.41;26.46
30819;BME280;17546;42.674;23.284;2023-02-19T10:10:34;95027.75;;;22.17;25.85
30819;BME280;17546;42.674;23.284;2023-02-19T10:13:18;95014.63;;;21.88;25.92
30819;BME280;17546;42.674;23.284;2023-02-19T10:15:56;95011.94;;;22.21;25.37
30819;BME280;17546;42.674;23.284;2023-02-19T10:18:26;95002.59;;;21.96;25.15
30819;BME280;17546;42.674;23.284;2023-02-19T10:20:55;95003.53;;;21.98;25.15
30819;BME280;17546;42.674;23.284;2023-02-19T10:23:23;94997.69;;;22.12;25.09
30819;BME280;17546;42.674;23.284;2023-02-19T10:25:54;94989.94;;;22.27;25.13
30819;BME280;17546;42.674;23.284;2023-02-19T10:28:30;94991.47;;;22.13;25.22
30819;BME280;17546;42.674;23.284;2023-02-19T10:30:58;94980.81;;;21.27;25.97
30819;BME280;17546;42.674;23.284;2023-02-19T10:33:24;94979.66;;;22.07;25.33
30819;BME280;17546;42.674;23.284;2023-02-19T10:35:57;94982.44;;;22.15;25.39
30819;BME280;17546;42.674;23.284;2023-02-19T10:38:36;94971.91;;;22.23;24.96
30819;BME280;17546;42.674;23.284;2023-02-19T10:41:05;94959.72;;;21.97;25.52
30819;BME280;17546;42.674;23.284;2023-02-19T10:43:37;94955.88;;;22.33;25.06
30819;BME280;17546;42.674;23.284;2023-02-19T10:46:14;94946.09;;;22.34;24.87
30819;BME280;17546;42.674;23.284;2023-02-19T10:48:49;94930.50;;;22.18;25.01
30819;BME280;17546;42.674;23.284;2023-02-19T10:51:17;94933.38;;;22.10;25.16
30819;BME280;17546;42.674;23.284;2023-02-19T10:53:47;94929.09;;;22.42;25.18
30819;BME280;17546;42.674;23.284;2023-02-19T10:58:39;94928.00;;;22.37;24.69
30819;BME280;17546;42.674;23.284;2023-02-19T11:03:41;94907.38;;;22.27;24.83
30819;BME280;17546;42.674;23.284;2023-02-19T11:06:09;94908.78;;;22.43;24.88
30819;BME280;17546;42.674;23.284;2023-02-19T11:08:50;94901.34;;;21.67;25.37
30819;BME280;17546;42.674;23.284;2023-02-19T11:13:48;94897.63;;;22.13;24.88
30819;BME280;17546;42.674;23.284;2023-02-19T11:16:14;94890.97;;;21.77;25.23
30819;BME280;17546;42.674;23.284;2023-02-19T11:18:39;94872.78;;;22.19;24.80
30819;BME280;17546;42.674;23.284;2023-02-19T11:21:23;94882.84;;;22.70;24.09
30819;BME280;17546;42.674;23.284;2023-02-19T11:23:48;94860.63;;;22.74;24.23
30819;BME280;17546;42.674;23.284;2023-02-19T11:26:25;94863.09;;;22.95;24.22
30819;BME280;17546;42.674;23.284;2023-02-19T11:29:00;94867.91;;;22.77;24.07
30819;BME280;17546;42.674;23.284;2023-02-19T11:31:31;94858.38;;;22.40;24.10
30819;BME280;17546;42.674;23.284;2023-02-19T11:34:02;94856.50;;;22.42;24.32
30819;BME280;17546;42.674;23.284;2023-02-19T11:37:07;94842.31;;;22.25;24.52
30819;BME280;17546;42.674;23.284;2023-02-19T11:39:33;94852.72;;;22.47;24.62
30819;BME280;17546;42.674;23.284;2023-02-19T11:55:52;94824.28;;;23.21;23.26
30819;BME280;17546;42.674;23.284;2023-02-19T12:01:27;94817.97;;;22.87;22.96
30819;BME280;17546;42.674;23.284;2023-02-19T12:17:54;94781.00;;;23.18;22.46
30819;BME280;17546;42.674;23.284;2023-02-19T12:28:49;94768.47;;;22.86;22.43
30819;BME280;17546;42.674;23.284;2023-02-19T12:31:45;94759.00;;;22.92;22.23
30819;BME280;17546;42.674;23.284;2023-02-19T12:44:48;94727.53;;;23.13;21.85
30819;BME280;17546;42.674;23.284;2023-02-19T12:47:21;94723.16;;;23.02;22.12
30819;BME280;17546;42.674;23.284;2023-02-19T12:50:18;94715.13;;;22.90;22.19
30819;BME280;17546;42.674;23.284;2023-02-19T12:52:42;94706.88;;;23.10;22.12
30819;BME280;17546;42.674;23.284;2023-02-19T12:55:45;94703.47;;;23.12;22.23
30819;BME280;17546;42.674;23.284;2023-02-19T12:58:27;94690.06;;;22.95;22.38
30819;BME280;17546;42.674;23.284;2023-02-19T13:00:57;94695.69;;;23.47;22.31
30819;BME280;17546;42.674;23.284;2023-02-19T13:11:27;94692.22;;;24.20;22.36
30819;BME280;17546;42.674;23.284;2023-02-19T13:13:58;94686.22;;;24.06;22.33
30819;BME280;17546;42.674;23.284;2023-02-19T13:16:26;94682.22;;;24.09;22.80
30819;BME280;17546;42.674;23.284;2023-02-19T13:19:02;94675.53;;;23.60;22.55
30819;BME280;17546;42.674;23.284;2023-02-19T13:21:30;94676.16;;;23.86;22.51
30819;BME280;17546;42.674;23.284;2023-02-19T13:24:26;94666.06;;;23.21;22.97
30819;BME280;17546;42.674;23.284;2023-02-19T13:36:33;94640.25;;;23.79;22.44
30819;BME280;17546;42.674;23.284;2023-02-19T13:38:45;94647.53;;;24.09;22.41
30819;BME280;17546;42.674;23.284;2023-02-19T13:41:40;94638.63;;;24.22;22.03
30819;BME280;17546;42.674;23.284;2023-02-19T13:44:16;94637.00;;;23.82;22.53
30819;BME280;17546;42.674;23.284;2023-02-19T13:46:45;94633.78;;;23.96;22.62
30819;BME280;17546;42.674;23.284;2023-02-19T13:49:23;94641.03;;;23.89;22.27
30819;BME280;17546;42.674;23.284;2023-02-19T13:51:50;94637.94;;;23.67;22.27
30819;BME280;17546;42.674;23.284;2023-02-19T13:54:25;94633.13;;;23.60;22.11
30819;BME280;17546;42.674;23.284;2023-02-19T13:59:47;94635.09;;;23.40;22.64
30819;BME280;17546;42.674;23.284;2023-02-19T14:02:34;94627.38;;;23.41;22.56
30819;BME280;17546;42.674;23.284;2023-02-19T14:05:04;94620.97;;;23.40;23.02
30819;BME280;17546;42.674;23.284;2023-02-19T14:10:01;94615.75;;;23.37;22.98
30819;BME280;17546;42.674;23.284;2023-02-19T14:12:34;94613.09;;;23.66;22.89
30819;BME280;17546;42.674;23.284;2023-02-19T14:18:39;94609.03;;;23.59;22.56
30819;BME280;17546;42.674;23.284;2023-02-19T14:21:22;94602.59;;;23.49;23.12
30819;BME280;17546;42.674;23.284;2023-02-19T14:23:52;94600.19;;;23.72;22.44
30819;BME280;17546;42.674;23.284;2023-02-19T14:26:19;94598.50;;;23.69;23.00
30819;BME280;17546;42.674;23.284;2023-02-19T14:28:45;94597.94;;;23.44;22.96
30819;BME280;17546;42.674;23.284;2023-02-19T14:31:30;94590.91;;;23.35;23.09
30819;BME280;17546;42.674;23.284;2023-02-19T14:34:04;94590.41;;;22.84;22.76
30819;BME280;17546;42.674;23.284;2023-02-19T14:36:44;94599.13;;;23.41;22.53
30819;BME280;17546;42.674;23.284;2023-02-19T14:39:23;94584.28;;;23.50;22.59
30819;BME280;17546;42.674;23.284;2023-02-19T14:41:56;94579.59;;;23.62;22.97
30819;BME280;17546;42.674;23.284;2023-02-19T14:44:28;94575.97;;;23.79;22.74
30819;BME280;17546;42.674;23.284;2023-02-19T14:47:06;94577.50;;;23.90;22.73
30819;BME280;17546;42.674;23.284;2023-02-19T14:49:59;94570.06;;;23.95;22.41
30819;BME280;17546;42.674;23.284;2023-02-19T14:52:29;94575.28;;;23.98;22.36
30819;BME280;17546;42.674;23.284;2023-02-19T14:55:34;94555.44;;;23.51;22.63
30819;BME280;17546;42.674;23.284;2023-02-19T14:58:06;94571.09;;;23.62;22.89
30819;BME280;17546;42.674;23.284;2023-02-19T15:00:39;94570.31;;;23.52;23.05